Time;durP1;ratioP1;P1;durP2;ratioP2;P2;SDS_P1;SDS_P2;PMS_P1;PMS_P2;Temp;Humidity;BMP_temperature;BMP_pressure;BME280_temperature;BME280_humidity;BME280_pressure;Samples;Min_cycle;Max_cycle;Signal;HPM_P1;HPM_P2
2023/05/07 00:02:47;;;;;;;10.68;5.68;;;;;;;14.90;100.00;100377.84;5547644;32;34785;-71
2023/05/07 00:05:52;;;;;;;7.37;5.28;;;;;;;14.82;100.00;100376.13;5547340;32;33781;-70
2023/05/07 00:08:57;;;;;;;10.57;5.60;;;;;;;14.72;100.00;100376.47;5547314;32;33905;-70
2023/05/07 00:12:00;;;;;;;8.00;5.85;;;;;;;14.71;100.00;100382.87;5547684;32;34741;-71
2023/05/07 00:15:03;;;;;;;7.43;5.70;;;;;;;14.81;100.00;100371.84;5547353;32;34495;-70
2023/05/07 00:18:06;;;;;;;6.80;5.72;;;;;;;14.81;100.00;100371.84;5547194;32;33759;-70
2023/05/07 00:21:09;;;;;;;11.57;6.00;;;;;;;14.75;100.00;100376.09;5547345;32;33579;-70
2023/05/07 00:24:12;;;;;;;8.40;5.53;;;;;;;14.68;100.00;100379.72;5546973;32;33796;-70
2023/05/07 00:27:15;;;;;;;7.95;6.25;;;;;;;14.61;100.00;100382.38;5547146;32;33606;-70
2023/05/07 00:30:18;;;;;;;8.63;6.10;;;;;;;14.56;100.00;100376.78;5546189;32;33801;-70
2023/05/07 00:33:22;;;;;;;7.85;6.12;;;;;;;14.54;100.00;100380.66;5547180;32;34654;-70
2023/05/07 00:36:26;;;;;;;9.90;6.50;;;;;;;14.56;100.00;100383.97;5546908;32;33945;-70
2023/05/07 00:39:28;;;;;;;7.57;6.30;;;;;;;14.49;100.00;100377.72;5546746;32;35379;-70
2023/05/07 00:42:32;;;;;;;10.38;6.35;;;;;;;14.41;100.00;100383.22;5547047;32;34365;-70
2023/05/07 00:45:34;;;;;;;9.52;7.55;;;;;;;14.29;100.00;100389.03;5546742;32;34351;-70
2023/05/07 00:48:37;;;;;;;7.50;6.62;;;;;;;14.16;100.00;100388.91;5546534;32;33782;-70
2023/05/07 00:51:40;;;;;;;9.30;7.68;;;;;;;14.09;100.00;100397.84;5546450;32;33803;-70
2023/05/07 00:54:44;;;;;;;10.13;7.68;;;;;;;13.99;100.00;100394.69;5546911;32;33779;-70
2023/05/07 00:57:47;;;;;;;10.02;7.85;;;;;;;13.96;100.00;100395.06;5546448;32;34473;-70
2023/05/07 01:00:50;;;;;;;13.68;9.77;;;;;;;13.99;100.00;100387.50;5548510;32;34304;-70
2023/05/07 01:03:53;;;;;;;10.77;9.00;;;;;;;14.02;100.00;100388.97;5548904;32;34688;-70
2023/05/07 01:06:58;;;;;;;16.10;10.38;;;;;;;14.06;100.00;100392.91;5548964;32;33820;-70
2023/05/07 01:10:04;;;;;;;14.02;10.95;;;;;;;14.16;100.00;100390.75;5549020;32;33643;-70
2023/05/07 01:13:07;;;;;;;16.05;11.15;;;;;;;14.23;100.00;100389.00;5548983;32;34043;-70
2023/05/07 01:16:10;;;;;;;15.23;10.60;;;;;;;14.33;100.00;100390.28;5548914;32;34038;-71
2023/05/07 01:19:17;;;;;;;11.27;9.88;;;;;;;14.45;100.00;100393.31;5547974;32;33794;-70
2023/05/07 01:22:39;;;;;;;12.88;9.55;;;;;;;14.44;100.00;100396.16;5549045;32;34279;-70
2023/05/07 01:25:42;;;;;;;11.98;9.75;;;;;;;14.42;100.00;100407.06;5548917;32;33675;-70
2023/05/07 01:28:45;;;;;;;14.13;9.63;;;;;;;14.41;100.00;100400.06;5549086;32;34002;-70
2023/05/07 01:31:51;;;;;;;16.37;10.48;;;;;;;14.38;100.00;100408.44;5549293;32;33527;-70
2023/05/07 01:34:57;;;;;;;13.32;10.57;;;;;;;14.31;100.00;100415.53;5548749;32;33988;-70
2023/05/07 01:38:00;;;;;;;14.40;11.02;;;;;;;14.40;100.00;100408.25;5548777;32;34416;-70
2023/05/07 01:41:03;;;;;;;14.07;10.68;;;;;;;14.43;100.00;100403.34;5548751;32;33882;-70
2023/05/07 01:44:08;;;;;;;14.80;11.25;;;;;;;14.28;100.00;100406.06;5548715;32;33628;-70
2023/05/07 01:47:12;;;;;;;13.68;10.45;;;;;;;14.28;100.00;100397.25;5548662;32;34287;-70
2023/05/07 01:50:19;;;;;;;13.05;10.52;;;;;;;14.19;100.00;100393.03;5548345;32;34071;-70
2023/05/07 01:53:21;;;;;;;11.25;9.57;;;;;;;14.04;100.00;100393.09;5548677;32;33702;-70
2023/05/07 01:56:25;;;;;;;15.50;10.07;;;;;;;14.05;100.00;100393.91;5548603;32;33837;-70
2023/05/07 01:59:28;;;;;;;11.70;10.13;;;;;;;13.91;100.00;100396.47;5548385;32;34428;-70
2023/05/07 02:02:31;;;;;;;12.82;10.30;;;;;;;13.84;100.00;100395.56;5548787;32;34262;-70
2023/05/07 02:05:34;;;;;;;12.37;10.45;;;;;;;13.75;100.00;100382.53;5548704;32;34603;-70
2023/05/07 02:08:39;;;;;;;14.55;10.32;;;;;;;13.70;100.00;100379.63;5548451;32;33610;-70
2023/05/07 02:11:42;;;;;;;16.33;10.70;;;;;;;13.61;100.00;100372.72;5548485;32;33672;-70
2023/05/07 02:14:46;;;;;;;15.88;10.15;;;;;;;13.58;100.00;100373.09;5548765;32;33804;-71
2023/05/07 02:18:02;;;;;;;12.75;10.05;;;;;;;13.44;100.00;100375.63;5548708;32;33645;-71
2023/05/07 02:21:05;;;;;;;12.27;10.20;;;;;;;13.26;100.00;100383.19;5548345;32;34336;-71
2023/05/07 02:24:08;;;;;;;13.95;10.35;;;;;;;13.16;100.00;100382.63;5548336;32;34046;-71
2023/05/07 02:27:11;;;;;;;21.55;10.73;;;;;;;13.04;100.00;100382.22;5548247;32;34012;-71
2023/05/07 02:30:14;;;;;;;14.70;10.45;;;;;;;12.97;100.00;100383.16;5547434;32;33994;-71
2023/05/07 02:33:18;;;;;;;14.57;10.75;;;;;;;13.15;100.00;100372.16;5548513;32;34511;-71
2023/05/07 02:36:20;;;;;;;15.05;11.10;;;;;;;13.08;100.00;100375.53;5548109;32;34757;-71
2023/05/07 02:39:24;;;;;;;12.63;10.13;;;;;;;13.05;100.00;100373.22;5548123;32;33818;-71
2023/05/07 02:42:27;;;;;;;12.37;9.98;;;;;;;12.93;100.00;100369.34;5547681;32;34734;-70
2023/05/07 02:45:30;;;;;;;11.20;9.63;;;;;;;12.84;100.00;100370.47;5548180;32;33890;-71
2023/05/07 02:48:33;;;;;;;12.43;9.80;;;;;;;12.77;100.00;100366.06;5548120;32;34400;-71
2023/05/07 02:51:36;;;;;;;14.90;9.95;;;;;;;12.70;100.00;100373.09;5548161;32;34189;-71
2023/05/07 02:54:40;;;;;;;13.10;10.15;;;;;;;12.66;100.00;100380.63;5548542;32;33613;-71
2023/05/07 02:57:43;;;;;;;11.10;9.27;;;;;;;12.70;100.00;100381.09;5531331;32;33988;-70
2023/05/07 03:00:46;;;;;;;12.48;8.75;;;;;;;12.72;100.00;100384.41;5534833;32;34601;-71
2023/05/07 03:03:50;;;;;;;11.70;8.63;;;;;;;12.76;100.00;100380.38;5548103;32;34415;-71
2023/05/07 03:06:53;;;;;;;9.93;8.15;;;;;;;12.84;100.00;100383.78;5547939;32;34472;-71
2023/05/07 03:09:56;;;;;;;13.60;9.10;;;;;;;12.97;100.00;100383.97;5548414;32;33669;-70
2023/05/07 03:12:58;;;;;;;9.45;8.13;;;;;;;13.06;100.00;100384.72;5548016;32;33889;-71
2023/05/07 03:16:01;;;;;;;11.35;7.97;;;;;;;12.96;100.00;100379.66;5548032;32;33644;-71
2023/05/07 03:19:04;;;;;;;12.40;9.10;;;;;;;12.88;100.00;100379.72;5548096;32;33920;-71
2023/05/07 03:22:07;;;;;;;12.32;8.32;;;;;;;12.86;100.00;100376.44;5547716;32;33622;-71
2023/05/07 03:25:10;;;;;;;10.00;7.55;;;;;;;12.86;100.00;100379.09;5547856;32;33812;-70
2023/05/07 03:28:13;;;;;;;11.63;6.93;;;;;;;12.93;100.00;100376.53;5548230;32;34333;-71
2023/05/07 03:31:16;;;;;;;10.38;7.50;;;;;;;13.04;100.00;100392.06;5547745;32;34936;-71
2023/05/07 03:34:21;;;;;;;11.95;7.30;;;;;;;13.07;100.00;100384.50;5533937;32;33791;-71
2023/05/07 03:37:24;;;;;;;10.23;6.82;;;;;;;13.10;100.00;100390.50;5547477;32;34794;-71
2023/05/07 03:40:28;;;;;;;9.88;6.87;;;;;;;13.05;100.00;100391.88;5547928;32;34027;-71
2023/05/07 03:43:31;;;;;;;8.40;6.82;;;;;;;13.11;100.00;100387.69;5548082;32;34361;-71
2023/05/07 03:46:35;;;;;;;7.85;6.60;;;;;;;13.15;100.00;100386.31;5534265;32;33500;-71
2023/05/07 03:49:38;;;;;;;7.62;6.43;;;;;;;13.16;100.00;100384.47;5547788;32;34558;-71
2023/05/07 03:52:41;;;;;;;9.15;6.72;;;;;;;13.14;100.00;100381.16;5547577;32;34614;-71
2023/05/07 03:55:44;;;;;;;7.85;6.47;;;;;;;13.10;100.00;100387.84;5547673;32;33901;-71
2023/05/07 03:58:47;;;;;;;9.73;7.47;;;;;;;13.03;100.00;100385.91;5547581;32;33944;-71
2023/05/07 04:01:50;;;;;;;10.00;7.80;;;;;;;13.07;100.00;100383.69;5547736;32;33620;-70
2023/05/07 04:04:54;;;;;;;11.15;7.78;;;;;;;13.13;100.00;100388.31;5534259;32;34528;-71
2023/05/07 04:08:01;;;;;;;12.35;8.68;;;;;;;13.16;100.00;100400.44;5547244;32;35125;-70
2023/05/07 04:11:04;;;;;;;14.38;9.32;;;;;;;13.22;100.00;100395.19;5533856;32;34526;-71
2023/05/07 04:14:07;;;;;;;10.85;8.68;;;;;;;13.15;100.00;100401.47;5547283;32;34010;-71
2023/05/07 04:17:10;;;;;;;11.55;9.25;;;;;;;13.24;100.00;100406.50;5547679;32;33636;-71
2023/05/07 04:20:16;;;;;;;15.32;9.27;;;;;;;13.21;100.00;100401.56;5547497;32;33637;-71
2023/05/07 04:23:19;;;;;;;10.38;9.00;;;;;;;13.28;100.00;100407.78;5547257;32;33623;-71
2023/05/07 04:26:23;;;;;;;11.98;8.82;;;;;;;13.32;100.00;100410.91;5547116;32;33883;-71
2023/05/07 04:29:26;;;;;;;12.07;9.43;;;;;;;13.27;100.00;100405.31;5547086;32;33577;-71
2023/05/07 04:32:29;;;;;;;12.57;9.68;;;;;;;13.29;100.00;100416.63;5547280;32;34579;-71
2023/05/07 04:35:32;;;;;;;14.18;9.55;;;;;;;13.20;100.00;100413.22;5548788;32;34187;-71
2023/05/07 04:38:35;;;;;;;11.63;9.60;;;;;;;13.21;100.00;100417.53;5535585;32;34545;-71
2023/05/07 04:41:39;;;;;;;14.10;9.27;;;;;;;13.31;100.00;100417.25;5549593;32;33849;-71
2023/05/07 04:44:44;;;;;;;11.52;9.32;;;;;;;13.44;100.00;100422.75;5535949;32;33669;-71
2023/05/07 04:47:47;;;;;;;11.65;9.77;;;;;;;13.60;100.00;100427.91;5549154;32;34291;-71
2023/05/07 04:50:51;;;;;;;10.48;8.95;;;;;;;13.76;100.00;100422.34;5549123;32;34116;-71
2023/05/07 04:53:54;;;;;;;10.75;8.70;;;;;;;13.91;100.00;100423.13;5549102;32;33921;-71
2023/05/07 04:56:57;;;;;;;13.57;10.10;;;;;;;14.09;100.00;100422.69;5549396;32;34786;-71
2023/05/07 05:00:00;;;;;;;12.52;9.50;;;;;;;14.32;100.00;100425.22;5549207;32;33600;-71
2023/05/07 05:03:07;;;;;;;12.05;9.80;;;;;;;14.53;100.00;100432.38;5549415;32;33852;-71
2023/05/07 05:06:11;;;;;;;10.80;8.48;;;;;;;14.85;100.00;100431.03;5549449;32;35272;-71
2023/05/07 05:09:15;;;;;;;11.23;8.85;;;;;;;15.07;100.00;100438.78;5535340;32;34130;-71
2023/05/07 05:12:19;;;;;;;11.20;8.82;;;;;;;15.05;100.00;100443.50;5549372;32;34077;-71
2023/05/07 05:15:22;;;;;;;12.73;8.18;;;;;;;15.16;100.00;100444.78;5549253;32;33728;-70
2023/05/07 05:18:25;;;;;;;11.65;8.98;;;;;;;15.18;100.00;100443.59;5548328;32;34448;-71
2023/05/07 05:21:27;;;;;;;13.05;9.40;;;;;;;15.36;100.00;100442.25;5543919;32;34769;-71
2023/05/07 05:24:32;;;;;;;11.07;9.73;;;;;;;15.58;100.00;100449.19;5529882;32;34912;-71
2023/05/07 05:27:35;;;;;;;11.25;8.52;;;;;;;15.67;100.00;100445.31;5529564;32;33905;-71
2023/05/07 05:30:40;;;;;;;14.15;9.68;;;;;;;15.77;100.00;100448.47;5532880;32;33806;-71
2023/05/07 05:33:43;;;;;;;11.15;9.00;;;;;;;15.69;100.00;100453.13;5529338;32;33899;-71
2023/05/07 05:36:46;;;;;;;11.48;8.70;;;;;;;15.38;100.00;100448.22;5530034;32;34003;-70
2023/05/07 05:39:49;;;;;;;9.30;7.87;;;;;;;15.43;100.00;100456.47;5529211;32;33991;-70
2023/05/07 05:42:54;;;;;;;11.32;7.85;;;;;;;15.29;100.00;100446.75;5528347;32;34372;-70
2023/05/07 05:45:57;;;;;;;11.20;7.20;;;;;;;15.22;100.00;100446.69;5528972;32;34084;-70
2023/05/07 05:49:00;;;;;;;8.82;7.55;;;;;;;15.22;100.00;100444.84;5529214;32;34509;-70
2023/05/07 05:52:03;;;;;;;8.25;7.05;;;;;;;15.29;100.00;100438.72;5529218;32;33677;-70
2023/05/07 05:55:07;;;;;;;10.57;7.10;;;;;;;15.51;100.00;100441.13;5529403;32;33644;-70
2023/05/07 05:58:10;;;;;;;12.27;6.90;;;;;;;15.70;100.00;100433.37;5529700;32;34491;-70
2023/05/07 06:01:14;;;;;;;8.25;6.60;;;;;;;16.03;100.00;100431.66;5529324;32;33628;-69
2023/05/07 06:04:19;;;;;;;8.52;6.60;;;;;;;16.19;100.00;100439.31;5529175;32;34015;-68
2023/05/07 06:07:22;;;;;;;8.57;6.75;;;;;;;16.33;100.00;100441.00;5529240;32;34355;-69
2023/05/07 06:10:26;;;;;;;9.13;7.07;;;;;;;16.40;100.00;100433.81;5529010;32;35431;-70
2023/05/07 06:13:30;;;;;;;7.80;7.00;;;;;;;16.56;100.00;100426.38;5529024;32;34590;-69
2023/05/07 06:16:33;;;;;;;8.43;6.80;;;;;;;16.53;100.00;100423.09;5528767;32;33716;-70
2023/05/07 06:19:35;;;;;;;9.10;6.75;;;;;;;16.52;100.00;100426.78;5528806;32;33746;-71
2023/05/07 06:22:39;;;;;;;10.50;6.85;;;;;;;16.76;100.00;100429.91;5528201;32;34730;-70
2023/05/07 06:25:48;;;;;;;8.77;6.85;;;;;;;17.01;100.00;100430.94;5528789;32;34635;-70
2023/05/07 06:28:52;;;;;;;11.12;6.37;;;;;;;17.01;100.00;100441.66;5528930;32;33867;-70
2023/05/07 06:31:55;;;;;;;10.82;7.47;;;;;;;17.20;100.00;100442.66;5529103;32;33791;-69
2023/05/07 06:34:58;;;;;;;9.82;7.25;;;;;;;17.30;100.00;100441.19;5528773;32;33845;-70
2023/05/07 06:38:01;;;;;;;11.35;7.80;;;;;;;17.42;100.00;100443.22;5529049;32;33895;-70
2023/05/07 06:41:08;;;;;;;8.68;7.30;;;;;;;17.82;100.00;100444.75;5528347;32;34180;-70
2023/05/07 06:44:13;;;;;;;12.70;7.80;;;;;;;18.09;100.00;100448.97;5528696;32;33950;-69
2023/05/07 06:47:16;;;;;;;9.45;7.30;;;;;;;18.08;100.00;100447.31;5528167;32;33825;-70
2023/05/07 06:50:19;;;;;;;8.85;7.62;;;;;;;18.70;100.00;100439.50;5527973;32;33918;-70
2023/05/07 06:53:24;;;;;;;8.77;7.37;;;;;;;19.14;100.00;100442.00;5528395;32;34050;-70
2023/05/07 06:56:28;;;;;;;9.52;6.62;;;;;;;19.27;100.00;100446.41;5531621;32;33741;-71
2023/05/07 06:59:31;;;;;;;9.18;6.65;;;;;;;19.52;100.00;100444.50;5533114;32;34539;-71
2023/05/07 07:02:34;;;;;;;9.20;6.78;;;;;;;19.65;100.00;100447.06;5528752;32;33654;-70
2023/05/07 07:05:38;;;;;;;9.82;7.25;;;;;;;20.11;100.00;100443.75;5529219;32;33988;-70
2023/05/07 07:08:40;;;;;;;9.13;6.65;;;;;;;20.56;100.00;100441.47;5528503;32;33911;-71
2023/05/07 07:11:46;;;;;;;9.93;6.65;;;;;;;21.35;98.66;100450.91;5528628;32;33900;-71
2023/05/07 07:14:49;;;;;;;13.23;6.57;;;;;;;22.22;87.85;100454.31;5528324;32;33770;-71
2023/05/07 07:17:52;;;;;;;9.13;6.45;;;;;;;22.63;79.96;100450.47;5528601;32;34898;-71
2023/05/07 07:20:55;;;;;;;8.00;6.03;;;;;;;22.79;77.65;100459.69;5529375;32;33854;-71
2023/05/07 07:23:58;;;;;;;6.37;4.75;;;;;;;23.38;74.46;100455.47;5547817;32;33894;-71
2023/05/07 07:27:00;;;;;;;6.82;5.18;;;;;;;22.16;72.98;100457.19;5537617;32;33764;-71
2023/05/07 07:30:05;;;;;;;6.12;5.40;;;;;;;21.02;82.81;100453.34;5528780;32;33558;-71
2023/05/07 07:33:09;;;;;;;7.93;5.37;;;;;;;20.63;88.93;100463.75;5528166;32;33929;-71
2023/05/07 07:36:12;;;;;;;9.60;6.28;;;;;;;21.06;86.50;100463.44;5528559;32;33675;-71
2023/05/07 07:39:15;;;;;;;6.60;5.57;;;;;;;21.94;81.45;100465.97;5533027;32;33673;-72
2023/05/07 07:42:19;;;;;;;7.85;5.25;;;;;;;22.57;76.83;100469.56;5547621;32;34124;-71
2023/05/07 07:45:23;;;;;;;8.25;5.05;;;;;;;22.49;75.01;100465.38;5547614;32;33964;-71
2023/05/07 07:48:27;;;;;;;6.72;5.00;;;;;;;23.28;70.22;100474.25;5542166;32;161767;-71
2023/05/07 07:51:30;;;;;;;7.87;4.95;;;;;;;22.82;72.22;100478.94;5546790;32;33819;-71
2023/05/07 07:54:34;;;;;;;6.28;4.28;;;;;;;23.73;65.25;100472.19;5547905;32;34578;-71
2023/05/07 07:57:37;;;;;;;7.53;4.25;;;;;;;23.88;64.31;100482.38;5544605;32;34005;-71
2023/05/07 08:00:41;;;;;;;8.63;4.20;;;;;;;24.59;62.29;100475.84;5547307;32;33900;-69
2023/05/07 08:03:45;;;;;;;5.18;4.37;;;;;;;24.91;59.01;100483.22;5547055;32;34621;-71
2023/05/07 08:06:48;;;;;;;6.00;4.37;;;;;;;23.32;63.73;100480.81;5547102;32;33929;-71
2023/05/07 08:09:51;;;;;;;4.65;3.70;;;;;;;23.18;65.67;100474.09;5547219;32;34521;-71
2023/05/07 08:12:55;;;;;;;7.45;3.83;;;;;;;23.42;64.97;100480.97;5543313;32;33688;-71
2023/05/07 08:15:58;;;;;;;5.07;3.17;;;;;;;23.85;59.92;100476.66;5543842;32;33563;-72
2023/05/07 08:19:01;;;;;;;4.85;2.67;;;;;;;24.04;60.27;100484.22;5544434;32;34896;-70
2023/05/07 08:22:05;;;;;;;4.75;2.50;;;;;;;23.28;58.93;100476.97;5547118;32;33809;-71
2023/05/07 08:25:09;;;;;;;5.25;2.37;;;;;;;22.81;60.37;100477.31;5546953;32;34509;-71
2023/05/07 08:28:13;;;;;;;3.08;2.58;;;;;;;23.13;61.11;100479.44;5546610;32;34017;-70
2023/05/07 08:31:15;;;;;;;3.50;2.50;;;;;;;23.38;58.32;100479.81;5546522;32;33804;-70
2023/05/07 08:34:19;;;;;;;2.80;2.20;;;;;;;23.00;59.41;100472.47;5546803;32;33898;-71
2023/05/07 08:37:22;;;;;;;2.97;1.90;;;;;;;22.42;59.94;100456.59;5545978;32;33895;-70
2023/05/07 08:40:26;;;;;;;3.67;1.83;;;;;;;21.96;60.95;100461.16;5544728;32;33736;-71
2023/05/07 08:43:32;;;;;;;3.87;1.80;;;;;;;22.16;59.64;100460.72;5546065;32;34014;-71
2023/05/07 08:46:36;;;;;;;1.87;1.67;;;;;;;22.60;59.05;100461.78;5546748;32;33943;-71
2023/05/07 08:49:39;;;;;;;4.65;1.67;;;;;;;22.83;60.22;100464.37;5545457;32;33786;-71
2023/05/07 08:52:43;;;;;;;4.35;1.48;;;;;;;23.46;58.23;100465.88;5546667;32;34422;-71
2023/05/07 08:55:47;;;;;;;2.87;1.60;;;;;;;24.23;53.91;100465.75;5546614;32;34491;-71
2023/05/07 08:58:51;;;;;;;2.55;1.40;;;;;;;24.34;53.04;100464.78;5546088;32;33885;-71
2023/05/07 09:01:54;;;;;;;2.45;1.37;;;;;;;24.06;52.89;100465.78;5546388;32;33706;-69
2023/05/07 09:04:57;;;;;;;2.20;1.20;;;;;;;23.52;51.64;100470.31;5546557;32;34471;-70
2023/05/07 09:08:02;;;;;;;5.30;1.12;;;;;;;23.09;52.03;100462.06;5545738;32;34912;-70
2023/05/07 09:11:05;;;;;;;1.55;1.10;;;;;;;22.90;49.10;100467.72;5546263;32;33599;-73
2023/05/07 09:14:08;;;;;;;1.30;1.20;;;;;;;23.71;48.92;100466.22;5546342;32;34900;-70
2023/05/07 09:17:12;;;;;;;1.90;1.15;;;;;;;24.66;47.23;100467.50;5546065;32;33901;-70
2023/05/07 09:20:16;;;;;;;2.22;1.17;;;;;;;26.11;45.41;100463.25;5546965;32;34544;-70
2023/05/07 09:23:20;;;;;;;2.65;1.70;;;;;;;26.38;41.42;100468.50;5548578;32;34309;-70
2023/05/07 09:26:24;;;;;;;4.37;1.40;;;;;;;25.87;45.13;100462.91;5548703;32;33882;-70
2023/05/07 09:29:35;;;;;;;1.95;1.20;;;;;;;26.93;43.45;100469.62;5548743;32;34332;-71
2023/05/07 09:32:38;;;;;;;2.28;1.27;;;;;;;26.67;41.72;100464.19;5548564;32;34557;-71
2023/05/07 09:35:43;;;;;;;1.58;1.10;;;;;;;27.98;40.54;100467.75;5548535;32;32869;-71
2023/05/07 09:38:46;;;;;;;2.53;1.27;;;;;;;27.66;38.16;100465.44;5540816;32;34110;-71
2023/05/07 09:41:51;;;;;;;4.55;1.10;;;;;;;29.48;36.50;100466.88;5548362;32;34406;-71
2023/05/07 09:44:54;;;;;;;3.25;1.45;;;;;;;29.74;35.92;100468.19;5548279;32;34823;-72
2023/05/07 09:48:01;;;;;;;3.00;1.62;;;;;;;29.80;36.87;100466.22;5543633;32;33815;-72
2023/05/07 09:51:15;;;;;;;7.50;1.73;;;;;;;31.03;35.35;100464.94;5533000;32;33990;-72
2023/05/07 09:54:19;;;;;;;5.65;1.70;;;;;;;31.34;33.23;100467.13;5547959;32;34908;-72
2023/05/07 09:57:23;;;;;;;2.10;1.42;;;;;;;29.97;35.99;100460.25;5534843;32;34007;-71
2023/05/07 10:00:28;;;;;;;2.65;2.00;;;;;;;26.67;41.12;100457.94;5534892;32;33653;-71
2023/05/07 10:03:36;;;;;;;3.25;1.70;;;;;;;26.46;42.24;100456.28;5547927;32;33830;-71
2023/05/07 10:06:40;;;;;;;4.22;1.85;;;;;;;25.56;43.73;100463.03;5534794;32;33644;-72
2023/05/07 10:09:46;;;;;;;3.47;1.95;;;;;;;24.53;47.64;100463.34;5548369;32;33597;-71
2023/05/07 10:12:52;;;;;;;2.22;1.85;;;;;;;24.08;50.13;100457.41;5548276;32;33993;-72
2023/05/07 10:15:57;;;;;;;2.15;1.87;;;;;;;24.83;46.68;100461.97;5548215;32;34146;-71
2023/05/07 10:19:05;;;;;;;5.70;2.17;;;;;;;24.23;47.62;100466.56;5547823;32;33760;-72
2023/05/07 10:22:09;;;;;;;3.08;2.00;;;;;;;23.60;50.66;100460.91;5548112;32;33934;-70
2023/05/07 10:25:25;;;;;;;2.15;1.95;;;;;;;23.28;51.91;100458.03;5534826;32;33790;-71
2023/05/07 10:28:32;;;;;;;4.65;2.53;;;;;;;22.92;53.88;100451.25;5535082;32;33837;-70
2023/05/07 10:32:03;;;;;;;4.05;2.20;;;;;;;23.25;53.38;100451.19;5547314;32;33752;-70
2023/05/07 10:35:13;;;;;;;3.05;2.00;;;;;;;23.86;52.76;100453.94;5548112;32;34828;-69
2023/05/07 10:38:17;;;;;;;4.78;2.00;;;;;;;24.32;49.78;100453.38;5548085;32;33777;-71
2023/05/07 10:41:21;;;;;;;4.10;2.03;;;;;;;24.84;47.91;100450.84;5548002;32;33798;-73
2023/05/07 10:44:28;;;;;;;3.70;1.60;;;;;;;26.47;42.94;100456.00;5548157;32;33683;-70
2023/05/07 10:47:32;;;;;;;2.83;1.75;;;;;;;25.08;44.02;100452.12;5546712;32;34038;-71
2023/05/07 10:50:37;;;;;;;3.15;2.00;;;;;;;24.30;46.00;100466.38;5526542;32;34855;-70
2023/05/07 10:53:40;;;;;;;4.95;2.00;;;;;;;23.64;48.77;100453.91;5533454;32;33845;-70
2023/05/07 10:56:43;;;;;;;2.95;2.10;;;;;;;23.32;51.56;100454.56;5527903;32;33603;-71
2023/05/07 10:59:47;;;;;;;5.57;2.40;;;;;;;23.44;51.65;100459.84;5534851;32;34061;-71
2023/05/07 11:03:11;;;;;;;4.20;2.30;;;;;;;23.46;52.90;100448.81;5533224;32;32740;-70
2023/05/07 11:06:16;;;;;;;3.53;2.40;;;;;;;24.45;51.66;100446.69;5544427;32;34598;-70
2023/05/07 11:09:19;;;;;;;5.50;2.62;;;;;;;25.42;48.81;100452.59;5535870;32;33173;-73
2023/05/07 11:12:40;;;;;;;4.55;2.42;;;;;;;27.85;43.06;100455.53;5536079;32;34609;-71
2023/05/07 11:15:45;;;;;;;;;;;;;;;29.82;38.10;100460.47;5541828;32;33634;-71
2023/05/07 11:18:50;;;;;;;4.68;2.75;;;;;;;29.87;37.40;100449.47;5537332;32;33993;-75
2023/05/07 11:21:56;;;;;;;6.78;2.17;;;;;;;30.35;36.04;100448.25;5528587;32;33631;-71
2023/05/07 11:25:01;;;;;;;2.30;1.98;;;;;;;30.18;35.81;100448.75;5528422;32;35202;-70
2023/05/07 11:28:07;;;;;;;2.65;2.15;;;;;;;32.06;32.41;100453.59;5527426;32;34555;-71
2023/05/07 11:31:10;;;;;;;5.37;2.45;;;;;;;30.02;36.04;100449.25;5528513;32;34108;-72
2023/05/07 11:34:15;;;;;;;5.15;1.90;;;;;;;32.35;32.90;100443.87;5527313;32;33810;-71
2023/05/07 11:37:19;;;;;;;2.70;2.10;;;;;;;31.68;32.50;100448.38;5528256;32;33687;-70
2023/05/07 11:40:22;;;;;;;2.62;1.90;;;;;;;32.62;31.28;100451.19;5528413;32;33900;-70
2023/05/07 11:43:25;;;;;;;1.98;1.67;;;;;;;32.60;31.21;100438.88;5536874;32;33878;-70
2023/05/07 11:46:28;;;;;;;4.22;2.10;;;;;;;32.43;31.14;100439.59;5547366;32;33875;-71
2023/05/07 11:49:31;;;;;;;4.12;2.15;;;;;;;31.75;32.48;100437.00;5547089;32;34645;-70
2023/05/07 11:52:34;;;;;;;3.22;1.70;;;;;;;31.89;32.47;100438.59;5532232;32;33993;-69
2023/05/07 11:55:37;;;;;;;2.40;1.30;;;;;;;31.80;32.02;100442.38;5528515;32;33949;-72
2023/05/07 11:58:41;;;;;;;2.50;1.50;;;;;;;32.59;30.41;100429.00;5527857;32;33633;-69
2023/05/07 12:01:47;;;;;;;3.17;2.00;;;;;;;32.63;30.10;100421.78;5535973;32;35040;-70
2023/05/07 12:04:51;;;;;;;2.12;1.60;;;;;;;31.64;30.84;100432.84;5537732;32;33554;-70
2023/05/07 12:07:57;;;;;;;5.47;1.90;;;;;;;32.11;29.97;100428.78;5545453;32;33865;-70
2023/05/07 12:11:00;;;;;;;2.72;1.85;;;;;;;32.01;30.26;100420.75;5547405;32;34382;-73
2023/05/07 12:14:03;;;;;;;3.75;2.10;;;;;;;27.98;36.63;100422.19;5547384;32;34605;-72
2023/05/07 12:17:13;;;;;;;2.75;1.90;;;;;;;28.29;36.96;100414.66;5547229;32;34479;-71
2023/05/07 12:20:17;;;;;;;3.47;1.80;;;;;;;27.28;38.23;100415.12;5547115;32;34620;-72
2023/05/07 12:23:21;;;;;;;3.67;1.92;;;;;;;26.16;40.95;100419.75;5547105;32;33825;-71
2023/05/07 12:26:24;;;;;;;2.35;1.85;;;;;;;28.70;37.32;100420.63;5547058;32;33941;-72
2023/05/07 12:29:27;;;;;;;2.30;1.50;;;;;;;33.19;29.85;100413.75;5544504;32;34407;-71
2023/05/07 12:32:30;;;;;;;2.85;1.37;;;;;;;33.83;27.57;100413.28;5537603;32;34104;-71
2023/05/07 12:35:40;;;;;;;1.85;1.50;;;;;;;33.40;28.81;100427.72;5545394;32;33738;-70
2023/05/07 12:38:43;;;;;;;1.60;1.25;;;;;;;33.39;27.56;100417.84;5545311;32;33674;-71
2023/05/07 12:41:58;;;;;;;2.45;1.50;;;;;;;33.75;26.88;100411.31;5541021;32;33807;-72
2023/05/07 12:45:11;;;;;;;2.22;1.50;;;;;;;35.86;23.71;100420.94;5527554;32;34356;-71
2023/05/07 12:48:15;;;;;;;2.33;1.90;;;;;;;34.85;26.39;100415.22;5527076;32;33549;-71
2023/05/07 12:51:18;;;;;;;2.75;1.90;;;;;;;33.60;28.02;100407.88;5527216;32;33948;-72
2023/05/07 12:54:29;;;;;;;4.87;1.80;;;;;;;29.59;32.97;100408.22;5527258;32;34019;-72
2023/05/07 12:57:38;;;;;;;4.18;1.75;;;;;;;27.63;36.37;100406.03;5529899;32;33754;-70
2023/05/07 13:00:43;;;;;;;4.68;2.10;;;;;;;28.96;35.25;100399.34;5529615;32;34732;-71
2023/05/07 13:03:48;;;;;;;2.47;2.00;;;;;;;30.89;31.58;100408.47;5529280;32;33850;-71
2023/05/07 13:06:53;;;;;;;6.15;2.20;;;;;;;30.38;32.57;100394.81;5529650;32;34845;-71
2023/05/07 13:09:56;;;;;;;3.50;1.60;;;;;;;31.33;31.81;100402.44;5529476;32;34155;-70
2023/05/07 13:12:59;;;;;;;3.70;2.05;;;;;;;33.17;29.27;100398.66;5529399;32;35113;-70
2023/05/07 13:16:03;;;;;;;3.03;1.87;;;;;;;32.99;28.63;100399.69;5529689;32;34634;-71
2023/05/07 13:19:07;;;;;;;4.60;2.20;;;;;;;31.69;29.86;100397.06;5529750;32;33623;-71
2023/05/07 13:22:09;;;;;;;3.47;1.90;;;;;;;31.77;30.41;100391.66;5529622;32;33978;-70
2023/05/07 13:25:12;;;;;;;4.97;1.65;;;;;;;33.06;28.66;100389.87;5528584;32;33850;-71
2023/05/07 13:28:16;;;;;;;3.03;2.08;;;;;;;33.19;28.26;100393.69;5529153;32;33676;-71
2023/05/07 13:31:23;;;;;;;4.12;2.03;;;;;;;30.29;31.90;100381.00;5529327;32;33771;-71
2023/05/07 13:34:26;;;;;;;10.98;1.98;;;;;;;32.20;29.43;100380.25;5528833;32;33928;-71
2023/05/07 13:37:29;;;;;;;5.78;2.50;;;;;;;32.00;30.21;100391.72;5529427;32;34352;-71
2023/05/07 13:40:32;;;;;;;5.82;2.30;;;;;;;30.03;32.33;100385.22;5528394;32;33655;-72
2023/05/07 13:43:34;;;;;;;3.17;1.98;;;;;;;26.87;37.39;100380.91;5528391;32;34539;-71
2023/05/07 13:46:37;;;;;;;5.15;1.85;;;;;;;29.49;33.41;100385.66;5529434;32;33946;-71
2023/05/07 13:49:40;;;;;;;3.55;2.00;;;;;;;32.50;28.46;100379.53;5528238;32;33623;-72
2023/05/07 13:52:50;;;;;;;6.28;2.33;;;;;;;31.95;29.31;100373.44;5529248;32;33815;-70
2023/05/07 13:55:53;;;;;;;3.42;2.00;;;;;;;32.35;28.80;100375.22;5528620;32;33909;-70
2023/05/07 13:58:56;;;;;;;3.83;2.33;;;;;;;31.57;29.69;100369.34;5529072;32;33722;-71
2023/05/07 14:02:02;;;;;;;4.60;2.40;;;;;;;33.90;27.22;100375.87;5529433;32;33803;-71
2023/05/07 14:05:06;;;;;;;2.75;2.30;;;;;;;32.05;29.49;100364.94;5529071;32;34972;-71
2023/05/07 14:08:09;;;;;;;2.72;2.35;;;;;;;32.99;28.34;100370.28;5528450;32;34857;-73